C6009 KMOB-KMOB
Flight info
| Callsign | C6009 |
|---|---|
| Flight time | 0h 1m |
| Altitude | 500 |
| Route | KMOB W453 A B KMOB |
| Aircraft | H60/M-SDFGRY/C |
Departure
| Time | 2026-04-16 00:10 |
|---|---|
| Airport | Mobile Regional Airport (KMOB) |
Arrival
| Time | 2026-04-16 00:12 |
|---|---|
| Airport | Mobile Regional Airport (KMOB) |
| Time | Latitude | Longitude | Altitude | Speed | Heading |
|---|---|---|---|---|---|
| 2026-04-15 21:21 | 30.69383 | -88.24207 | 220 ft | 0 kts | 0° |
| 2026-04-15 21:31 | 30.69405 | -88.24221 | 220 ft | 5 kts | 270° |
| 2026-04-15 21:31 | 30.69385 | -88.24260 | 219 ft | 7 kts | 233° |
| 2026-04-15 21:32 | 30.69312 | -88.24325 | 217 ft | 7 kts | 148° |
| 2026-04-15 21:32 | 30.69284 | -88.24299 | 217 ft | 3 kts | 145° |
| 2026-04-15 21:32 | 30.69281 | -88.24296 | 217 ft | 0 kts | 144° |
| 2026-04-15 21:33 | 30.69281 | -88.24297 | 217 ft | 0 kts | 142° |
| 2026-04-15 21:33 | 30.69280 | -88.24296 | 224 ft | 1 kts | 140° |
| 2026-04-15 21:33 | 30.69272 | -88.24292 | 250 ft | 13 kts | 139° |
| 2026-04-15 21:34 | 30.69034 | -88.24129 | 431 ft | 64 kts | 143° |
| 2026-04-15 21:34 | 30.68664 | -88.23867 | 491 ft | 62 kts | 143° |
| 2026-04-15 21:34 | 30.68293 | -88.23624 | 503 ft | 62 kts | 143° |
| 2026-04-15 21:34 | 30.67905 | -88.23392 | 499 ft | 63 kts | 143° |
| 2026-04-15 21:35 | 30.67502 | -88.23148 | 500 ft | 65 kts | 143° |
| 2026-04-15 21:35 | 30.67093 | -88.22911 | 502 ft | 66 kts | 143° |
| 2026-04-15 21:35 | 30.66677 | -88.22694 | 502 ft | 65 kts | 143° |
| 2026-04-15 21:35 | 30.66257 | -88.22508 | 501 ft | 69 kts | 145° |
| 2026-04-15 21:36 | 30.65683 | -88.22219 | 513 ft | 106 kts | 156° |
| 2026-04-15 21:36 | 30.64990 | -88.21845 | 512 ft | 109 kts | 156° |
| 2026-04-15 21:36 | 30.64324 | -88.21504 | 507 ft | 99 kts | 157° |
| 2026-04-15 21:36 | 30.63682 | -88.21151 | 504 ft | 104 kts | 156° |
| 2026-04-15 21:37 | 30.63003 | -88.20786 | 508 ft | 104 kts | 157° |
| 2026-04-15 21:37 | 30.62340 | -88.20457 | 503 ft | 107 kts | 159° |
| 2026-04-15 21:37 | 30.61686 | -88.20109 | 518 ft | 96 kts | 162° |
| 2026-04-15 21:37 | 30.61102 | -88.19981 | 499 ft | 93 kts | 173° |
| 2026-04-15 21:38 | 30.60381 | -88.19859 | 501 ft | 103 kts | 173° |
| 2026-04-15 21:38 | 30.59898 | -88.19784 | 500 ft | 105 kts | 173° |
| 2026-04-15 21:38 | 30.59199 | -88.19661 | 501 ft | 97 kts | 173° |
| 2026-04-15 21:38 | 30.58532 | -88.19551 | 510 ft | 96 kts | 173° |
| 2026-04-15 21:39 | 30.57840 | -88.19425 | 507 ft | 103 kts | 173° |
| 2026-04-15 21:39 | 30.56916 | -88.19270 | 496 ft | 96 kts | 173° |
| 2026-04-15 21:39 | 30.56457 | -88.19205 | 511 ft | 104 kts | 173° |
| 2026-04-15 21:39 | 30.55750 | -88.19085 | 510 ft | 104 kts | 173° |
| 2026-04-15 21:40 | 30.55064 | -88.18955 | 511 ft | 100 kts | 173° |
| 2026-04-15 21:40 | 30.54386 | -88.18840 | 506 ft | 106 kts | 173° |
| 2026-04-15 21:40 | 30.53673 | -88.18721 | 507 ft | 103 kts | 173° |
| 2026-04-15 21:40 | 30.52988 | -88.18600 | 500 ft | 101 kts | 173° |
| 2026-04-15 21:41 | 30.52319 | -88.18511 | 515 ft | 86 kts | 184° |
| 2026-04-15 21:41 | 30.51677 | -88.18627 | 505 ft | 109 kts | 188° |
| 2026-04-15 21:41 | 30.50972 | -88.18771 | 505 ft | 106 kts | 189° |
| 2026-04-15 21:41 | 30.50268 | -88.18932 | 494 ft | 110 kts | 189° |
| 2026-04-15 21:42 | 30.49532 | -88.19097 | 511 ft | 101 kts | 189° |
| 2026-04-15 21:42 | 30.48787 | -88.19279 | 515 ft | 105 kts | 189° |
| 2026-04-15 21:42 | 30.48051 | -88.19442 | 502 ft | 106 kts | 189° |
| 2026-04-15 21:42 | 30.47294 | -88.19580 | 493 ft | 109 kts | 189° |
| 2026-04-15 21:43 | 30.46585 | -88.19721 | 508 ft | 106 kts | 189° |
| 2026-04-15 21:43 | 30.45850 | -88.19853 | 508 ft | 101 kts | 189° |
| 2026-04-15 21:43 | 30.45117 | -88.19996 | 509 ft | 106 kts | 189° |
| 2026-04-15 21:43 | 30.44406 | -88.20157 | 513 ft | 98 kts | 190° |
| 2026-04-15 21:44 | 30.43697 | -88.20282 | 505 ft | 103 kts | 189° |
| 2026-04-15 21:44 | 30.43022 | -88.20441 | 509 ft | 98 kts | 189° |
| 2026-04-15 21:44 | 30.42325 | -88.20593 | 507 ft | 99 kts | 189° |
| 2026-04-15 21:44 | 30.41646 | -88.20771 | 506 ft | 104 kts | 189° |
| 2026-04-15 21:45 | 30.40961 | -88.20956 | 499 ft | 113 kts | 189° |
| 2026-04-15 21:45 | 30.40227 | -88.21140 | 501 ft | 100 kts | 189° |
| 2026-04-15 21:45 | 30.39527 | -88.21307 | 501 ft | 107 kts | 189° |
| 2026-04-15 21:45 | 30.38803 | -88.21474 | 503 ft | 110 kts | 189° |
| 2026-04-15 21:46 | 30.38058 | -88.21641 | 490 ft | 117 kts | 189° |
| 2026-04-15 21:46 | 30.37313 | -88.21815 | 497 ft | 109 kts | 189° |
| 2026-04-15 21:46 | 30.36553 | -88.21976 | 505 ft | 106 kts | 189° |
| 2026-04-15 21:46 | 30.35813 | -88.22138 | 504 ft | 106 kts | 189° |
| 2026-04-15 21:47 | 30.35071 | -88.22286 | 504 ft | 113 kts | 189° |
| 2026-04-15 21:47 | 30.34330 | -88.22445 | 507 ft | 104 kts | 189° |
| 2026-04-15 21:47 | 30.33597 | -88.22604 | 501 ft | 106 kts | 189° |
| 2026-04-15 21:47 | 30.32865 | -88.22758 | 510 ft | 106 kts | 184° |
| 2026-04-15 21:48 | 30.32138 | -88.22738 | 493 ft | 103 kts | 174° |
| 2026-04-15 21:48 | 30.31449 | -88.22689 | 495 ft | 106 kts | 174° |
| 2026-04-15 21:48 | 30.30721 | -88.22611 | 496 ft | 108 kts | 174° |
| 2026-04-15 21:48 | 30.29971 | -88.22541 | 500 ft | 107 kts | 174° |
| 2026-04-15 21:49 | 30.29222 | -88.22478 | 501 ft | 106 kts | 174° |
| 2026-04-15 21:49 | 30.28503 | -88.22428 | 496 ft | 107 kts | 174° |
| 2026-04-15 21:49 | 30.27776 | -88.22370 | 500 ft | 104 kts | 174° |
| 2026-04-15 21:49 | 30.27030 | -88.22300 | 491 ft | 106 kts | 174° |
| 2026-04-15 21:50 | 30.26290 | -88.22220 | 494 ft | 111 kts | 174° |
| 2026-04-15 21:50 | 30.25548 | -88.22166 | 502 ft | 104 kts | 175° |
| 2026-04-15 21:50 | 30.24824 | -88.22083 | 489 ft | 106 kts | 174° |
| 2026-04-15 21:50 | 30.24099 | -88.22029 | 489 ft | 108 kts | 174° |
| 2026-04-15 21:51 | 30.23388 | -88.21977 | 494 ft | 99 kts | 174° |
| 2026-04-15 21:51 | 30.22655 | -88.21914 | 497 ft | 105 kts | 174° |
| 2026-04-15 21:51 | 30.21938 | -88.21841 | 490 ft | 110 kts | 174° |
| 2026-04-15 21:51 | 30.21187 | -88.21741 | 497 ft | 105 kts | 174° |
| 2026-04-15 21:52 | 30.20462 | -88.21671 | 493 ft | 110 kts | 174° |
| 2026-04-15 21:52 | 30.19723 | -88.21590 | 490 ft | 102 kts | 174° |
| 2026-04-15 21:52 | 30.19007 | -88.21543 | 500 ft | 103 kts | 174° |
| 2026-04-15 21:52 | 30.18295 | -88.21487 | 489 ft | 110 kts | 174° |
| 2026-04-15 21:53 | 30.17571 | -88.21461 | 498 ft | 105 kts | 174° |
| 2026-04-15 21:53 | 30.16836 | -88.21409 | 499 ft | 108 kts | 174° |
| 2026-04-15 21:53 | 30.16091 | -88.21360 | 498 ft | 105 kts | 174° |
| 2026-04-15 21:53 | 30.15342 | -88.21324 | 483 ft | 110 kts | 174° |
| 2026-04-15 21:54 | 30.14609 | -88.21274 | 489 ft | 102 kts | 174° |
| 2026-04-15 21:54 | 30.13874 | -88.21265 | 491 ft | 106 kts | 175° |
| 2026-04-15 21:54 | 30.13147 | -88.21221 | 487 ft | 106 kts | 174° |
| 2026-04-15 21:54 | 30.12420 | -88.21183 | 484 ft | 103 kts | 174° |
| 2026-04-15 21:55 | 30.11693 | -88.21112 | 488 ft | 107 kts | 174° |
| 2026-04-15 21:55 | 30.10962 | -88.21056 | 482 ft | 104 kts | 174° |
| 2026-04-15 21:55 | 30.10244 | -88.20982 | 481 ft | 105 kts | 174° |
| 2026-04-15 21:55 | 30.09496 | -88.20911 | 489 ft | 105 kts | 174° |
| 2026-04-15 21:56 | 30.08746 | -88.20839 | 492 ft | 109 kts | 174° |
| 2026-04-15 21:56 | 30.08001 | -88.20774 | 484 ft | 107 kts | 174° |
| 2026-04-15 21:56 | 30.07250 | -88.20706 | 489 ft | 108 kts | 174° |
| 2026-04-15 21:56 | 30.06500 | -88.20633 | 487 ft | 110 kts | 174° |
| 2026-04-15 21:57 | 30.05752 | -88.20559 | 481 ft | 108 kts | 174° |
| 2026-04-15 21:57 | 30.05006 | -88.20504 | 484 ft | 111 kts | 174° |
| 2026-04-15 21:57 | 30.04253 | -88.20451 | 475 ft | 104 kts | 174° |
| 2026-04-15 21:57 | 30.03514 | -88.20402 | 480 ft | 109 kts | 174° |
| 2026-04-15 21:58 | 30.02762 | -88.20336 | 475 ft | 110 kts | 174° |
| 2026-04-15 21:58 | 30.02000 | -88.20278 | 473 ft | 108 kts | 174° |
| 2026-04-15 21:58 | 30.01242 | -88.20222 | 478 ft | 109 kts | 174° |
| 2026-04-15 21:58 | 30.00475 | -88.20170 | 478 ft | 110 kts | 174° |
| 2026-04-15 21:59 | 29.99718 | -88.20112 | 481 ft | 111 kts | 174° |
| 2026-04-15 21:59 | 29.98960 | -88.20052 | 483 ft | 109 kts | 174° |
| 2026-04-15 21:59 | 29.98195 | -88.19982 | 482 ft | 108 kts | 174° |
| 2026-04-15 21:59 | 29.97430 | -88.19919 | 512 ft | 106 kts | 176° |
| 2026-04-15 22:00 | 29.96837 | -88.19773 | 451 ft | 75 kts | 153° |
| 2026-04-15 22:00 | 29.96551 | -88.19372 | 377 ft | 53 kts | 134° |
| 2026-04-15 22:00 | 29.96313 | -88.19022 | 381 ft | 56 kts | 134° |
| 2026-04-15 22:00 | 29.96046 | -88.18692 | 386 ft | 56 kts | 134° |
| 2026-04-15 22:01 | 29.95769 | -88.18379 | 379 ft | 57 kts | 134° |
| 2026-04-15 22:01 | 29.95480 | -88.18110 | 383 ft | 48 kts | 134° |
| 2026-04-15 22:01 | 29.95074 | -88.18060 | 380 ft | 62 kts | 172° |
| 2026-04-15 22:01 | 29.94606 | -88.17955 | 386 ft | 70 kts | 126° |
| 2026-04-15 22:02 | 29.94288 | -88.17570 | 379 ft | 63 kts | 109° |
| 2026-04-15 22:02 | 29.94151 | -88.17117 | 381 ft | 63 kts | 92° |
| 2026-04-15 22:02 | 29.94141 | -88.16661 | 387 ft | 50 kts | 45° |
| 2026-04-15 22:02 | 29.94405 | -88.16669 | 329 ft | 55 kts | 297° |
| 2026-04-15 22:03 | 29.94296 | -88.17099 | 493 ft | 21 kts | 295° |
| 2026-04-15 22:03 | 29.94358 | -88.17451 | 260 ft | 69 kts | 285° |
| 2026-04-15 22:03 | 29.94339 | -88.18032 | 371 ft | 77 kts | 266° |
| 2026-04-15 22:03 | 29.94104 | -88.18395 | 289 ft | 37 kts | 132° |
| 2026-04-15 22:04 | 29.94083 | -88.18133 | 269 ft | 41 kts | 95° |
| 2026-04-15 22:04 | 29.94073 | -88.17728 | 343 ft | 45 kts | 96° |
| 2026-04-15 22:04 | 29.94066 | -88.17444 | 245 ft | 36 kts | 89° |
| 2026-04-15 22:04 | 29.94068 | -88.17188 | 176 ft | 14 kts | 86° |
| 2026-04-15 22:05 | 29.94064 | -88.17086 | 74 ft | 11 kts | 88° |
| 2026-04-15 22:05 | 29.94063 | -88.17011 | 74 ft | 8 kts | 90° |
| 2026-04-15 22:05 | 29.94062 | -88.16960 | 45 ft | 4 kts | 88° |
| 2026-04-15 22:05 | 29.94062 | -88.16945 | 33 ft | 1 kts | 88° |
| 2026-04-15 22:06 | 29.94062 | -88.16937 | 33 ft | 1 kts | 88° |
| 2026-04-15 22:06 | 29.94063 | -88.16971 | 74 ft | 8 kts | 86° |
| 2026-04-15 22:06 | 29.94063 | -88.17013 | 91 ft | 1 kts | 85° |
| 2026-04-15 22:06 | 29.94062 | -88.16966 | 76 ft | 8 kts | 88° |
| 2026-04-15 22:07 | 29.94062 | -88.16917 | 56 ft | 4 kts | 88° |
| 2026-04-15 22:07 | 29.94062 | -88.16898 | 33 ft | 1 kts | 92° |
| 2026-04-15 22:07 | 29.94062 | -88.16889 | 33 ft | 1 kts | 92° |
| 2026-04-15 22:07 | 29.94062 | -88.16884 | 48 ft | 2 kts | 90° |
| 2026-04-15 22:08 | 29.94063 | -88.16928 | 70 ft | 7 kts | 86° |
| 2026-04-15 22:08 | 29.94062 | -88.16951 | 72 ft | 2 kts | 87° |
| 2026-04-15 22:08 | 29.94062 | -88.16903 | 68 ft | 7 kts | 90° |
| 2026-04-15 22:08 | 29.94062 | -88.16858 | 48 ft | 3 kts | 88° |
| 2026-04-15 22:09 | 29.94062 | -88.16841 | 32 ft | 1 kts | 89° |
| 2026-04-15 22:09 | 29.94062 | -88.16833 | 31 ft | 1 kts | 89° |
| 2026-04-15 22:09 | 29.94062 | -88.16825 | 35 ft | 1 kts | 89° |
| 2026-04-15 22:09 | 29.94080 | -88.16823 | 45 ft | 9 kts | 87° |
| 2026-04-15 22:10 | 29.94195 | -88.16586 | 239 ft | 65 kts | 57° |
| 2026-04-15 22:10 | 29.94665 | -88.16763 | 416 ft | 88 kts | 282° |
| 2026-04-15 22:10 | 29.94707 | -88.17441 | 296 ft | 82 kts | 254° |
| 2026-04-15 22:10 | 29.94451 | -88.17862 | 236 ft | 38 kts | 145° |
| 2026-04-15 22:11 | 29.94191 | -88.17663 | 258 ft | 51 kts | 106° |
| 2026-04-15 22:11 | 29.94075 | -88.17220 | 170 ft | 60 kts | 98° |
| 2026-04-15 22:11 | 29.94079 | -88.16897 | 116 ft | 16 kts | 97° |
| 2026-04-15 22:11 | 29.94063 | -88.16825 | 89 ft | 7 kts | 89° |
| 2026-04-15 22:12 | 29.94063 | -88.16768 | 55 ft | 6 kts | 90° |
| 2026-04-15 22:12 | 29.94063 | -88.16740 | 44 ft | 2 kts | 95° |
| 2026-04-15 22:12 | 29.94063 | -88.16729 | 32 ft | 1 kts | 94° |
| 2026-04-15 22:12 | 29.94063 | -88.16721 | 31 ft | 1 kts | 94° |
| 2026-04-15 22:13 | 29.94063 | -88.16713 | 34 ft | 1 kts | 94° |
| 2026-04-15 22:13 | 29.94063 | -88.16705 | 33 ft | 1 kts | 94° |
| 2026-04-15 22:13 | 29.94063 | -88.16697 | 33 ft | 1 kts | 94° |
| 2026-04-15 22:13 | 29.94063 | -88.16689 | 33 ft | 1 kts | 94° |
| 2026-04-15 22:14 | 29.94063 | -88.16681 | 33 ft | 1 kts | 94° |
| 2026-04-15 22:14 | 29.94063 | -88.16673 | 33 ft | 1 kts | 94° |
| 2026-04-15 22:14 | 29.94063 | -88.16672 | 48 ft | 2 kts | 91° |
| 2026-04-15 22:14 | 29.94072 | -88.16687 | 69 ft | 4 kts | 90° |
| 2026-04-15 22:15 | 29.94140 | -88.16444 | 181 ft | 68 kts | 93° |
| 2026-04-15 22:15 | 29.93667 | -88.16154 | 322 ft | 100 kts | 204° |
| 2026-04-15 22:15 | 29.93523 | -88.16807 | 468 ft | 105 kts | 297° |
| 2026-04-15 22:15 | 29.93957 | -88.17479 | 348 ft | 96 kts | 313° |
| 2026-04-15 22:16 | 29.94394 | -88.18040 | 334 ft | 82 kts | 257° |
| 2026-04-15 22:16 | 29.93940 | -88.18123 | 332 ft | 73 kts | 160° |
| 2026-04-15 22:16 | 29.93419 | -88.17878 | 633 ft | 99 kts | 151° |
| 2026-04-15 22:16 | 29.92857 | -88.17351 | 432 ft | 104 kts | 95° |
| 2026-04-15 22:17 | 29.93087 | -88.16906 | 381 ft | 63 kts | 14° |
| 2026-04-15 22:17 | 29.93468 | -88.16812 | 317 ft | 54 kts | 17° |
| 2026-04-15 22:17 | 29.93826 | -88.16650 | 268 ft | 45 kts | 12° |
| 2026-04-15 22:17 | 29.93940 | -88.16609 | 272 ft | 3 kts | 3° |
| 2026-04-15 22:18 | 29.93960 | -88.16580 | 193 ft | 1 kts | 4° |
| 2026-04-15 22:18 | 29.93985 | -88.16569 | 93 ft | 8 kts | 4° |
| 2026-04-15 22:18 | 29.94038 | -88.16551 | 69 ft | 7 kts | 1° |
| 2026-04-15 22:18 | 29.94062 | -88.16540 | 53 ft | 1 kts | 2° |
| 2026-04-15 22:19 | 29.94063 | -88.16533 | 61 ft | 1 kts | 2° |
| 2026-04-15 22:19 | 29.94063 | -88.16524 | 55 ft | 1 kts | 2° |
| 2026-04-15 22:19 | 29.94062 | -88.16517 | 50 ft | 0 kts | 3° |
| 2026-04-15 22:19 | 29.94064 | -88.16509 | 58 ft | 1 kts | 3° |
| 2026-04-15 22:20 | 29.94088 | -88.16520 | 182 ft | 11 kts | 4° |
| 2026-04-15 22:20 | 29.94289 | -88.16694 | 169 ft | 63 kts | 290° |
| 2026-04-15 22:20 | 29.94210 | -88.17256 | 236 ft | 86 kts | 217° |
| 2026-04-15 22:20 | 29.93742 | -88.17317 | 284 ft | 63 kts | 137° |
| 2026-04-15 22:21 | 29.93687 | -88.16833 | 207 ft | 64 kts | 84° |
| 2026-04-15 22:21 | 29.93812 | -88.16476 | 128 ft | 31 kts | 17° |
| 2026-04-15 22:21 | 29.93991 | -88.16465 | 63 ft | 18 kts | 14° |
| 2026-04-15 22:21 | 29.94053 | -88.16442 | 72 ft | 4 kts | 12° |
| 2026-04-15 22:22 | 29.94059 | -88.16432 | 47 ft | 1 kts | 7° |
| 2026-04-15 22:22 | 29.94217 | -88.16460 | 161 ft | 51 kts | 352° |
| 2026-04-15 22:22 | 29.94556 | -88.16929 | 349 ft | 104 kts | 270° |
| 2026-04-15 22:22 | 29.94392 | -88.17692 | 329 ft | 85 kts | 181° |
| 2026-04-15 22:23 | 29.94085 | -88.17479 | 273 ft | 61 kts | 99° |
| 2026-04-15 22:23 | 29.94111 | -88.16946 | 214 ft | 61 kts | 91° |
| 2026-04-15 22:23 | 29.94202 | -88.16545 | 328 ft | 54 kts | 89° |
| 2026-04-15 22:23 | 29.94271 | -88.16007 | 269 ft | 78 kts | 28° |
| 2026-04-15 22:24 | 29.94802 | -88.16099 | 328 ft | 92 kts | 328° |
| 2026-04-15 22:24 | 29.95326 | -88.16592 | 299 ft | 99 kts | 306° |
| 2026-04-15 22:24 | 29.95401 | -88.17281 | 294 ft | 85 kts | 255° |
| 2026-04-15 22:24 | 29.95076 | -88.17804 | 292 ft | 80 kts | 213° |
| 2026-04-15 22:25 | 29.94518 | -88.17951 | 290 ft | 86 kts | 133° |
| 2026-04-15 22:25 | 29.94073 | -88.17616 | 380 ft | 64 kts | 102° |
| 2026-04-15 22:25 | 29.94084 | -88.17147 | 243 ft | 64 kts | 91° |
| 2026-04-15 22:25 | 29.94112 | -88.16850 | 262 ft | 45 kts | 92° |
| 2026-04-15 22:26 | 29.94068 | -88.16521 | 119 ft | 29 kts | 89° |
| 2026-04-15 22:26 | 29.94065 | -88.16378 | 65 ft | 13 kts | 86° |
| 2026-04-15 22:26 | 29.94063 | -88.16301 | 48 ft | 6 kts | 86° |
| 2026-04-15 22:26 | 29.94062 | -88.16275 | 48 ft | 2 kts | 89° |
| 2026-04-15 22:27 | 29.94062 | -88.16265 | 33 ft | 1 kts | 85° |
| 2026-04-15 22:27 | 29.94062 | -88.16257 | 33 ft | 1 kts | 85° |
| 2026-04-15 22:27 | 29.94062 | -88.16249 | 33 ft | 1 kts | 85° |
| 2026-04-15 22:27 | 29.94062 | -88.16241 | 33 ft | 1 kts | 85° |
| 2026-04-15 22:28 | 29.94062 | -88.16233 | 33 ft | 1 kts | 85° |
| 2026-04-15 22:28 | 29.94062 | -88.16225 | 33 ft | 1 kts | 85° |
| 2026-04-15 22:28 | 29.94062 | -88.16217 | 33 ft | 1 kts | 85° |
| 2026-04-15 22:28 | 29.94062 | -88.16209 | 33 ft | 1 kts | 85° |
| 2026-04-15 22:29 | 29.94062 | -88.16200 | 33 ft | 1 kts | 85° |
| 2026-04-15 22:29 | 29.94062 | -88.16192 | 34 ft | 1 kts | 85° |
| 2026-04-15 22:29 | 29.94062 | -88.16184 | 32 ft | 1 kts | 85° |
| 2026-04-15 22:29 | 29.94062 | -88.16176 | 31 ft | 1 kts | 85° |
| 2026-04-15 22:30 | 29.94062 | -88.16168 | 32 ft | 1 kts | 85° |
| 2026-04-15 22:30 | 29.94062 | -88.16160 | 32 ft | 1 kts | 85° |
| 2026-04-15 22:30 | 29.94062 | -88.16152 | 34 ft | 1 kts | 85° |
| 2026-04-15 22:30 | 29.94062 | -88.16144 | 35 ft | 1 kts | 85° |
| 2026-04-15 22:31 | 29.94062 | -88.16136 | 34 ft | 1 kts | 85° |
| 2026-04-15 22:31 | 29.94062 | -88.16128 | 33 ft | 1 kts | 85° |
| 2026-04-15 22:31 | 29.94062 | -88.16120 | 33 ft | 1 kts | 85° |
| 2026-04-15 22:31 | 29.94062 | -88.16112 | 33 ft | 1 kts | 85° |
| 2026-04-15 22:32 | 29.94062 | -88.16104 | 33 ft | 1 kts | 85° |
| 2026-04-15 22:32 | 29.94062 | -88.16096 | 33 ft | 1 kts | 85° |
| 2026-04-15 22:32 | 29.94062 | -88.16088 | 33 ft | 1 kts | 85° |
| 2026-04-15 22:32 | 29.94062 | -88.16080 | 33 ft | 1 kts | 85° |
| 2026-04-15 22:33 | 29.94062 | -88.16072 | 33 ft | 1 kts | 85° |
| 2026-04-15 22:33 | 29.94062 | -88.16064 | 33 ft | 1 kts | 85° |
| 2026-04-15 22:33 | 29.94062 | -88.16056 | 34 ft | 1 kts | 85° |
| 2026-04-15 22:33 | 29.94062 | -88.16048 | 32 ft | 1 kts | 85° |
| 2026-04-15 22:34 | 29.94062 | -88.16040 | 32 ft | 1 kts | 85° |
| 2026-04-15 22:34 | 29.94062 | -88.16032 | 32 ft | 1 kts | 85° |
| 2026-04-15 22:34 | 29.94062 | -88.16024 | 33 ft | 1 kts | 85° |
| 2026-04-15 22:34 | 29.94062 | -88.16016 | 33 ft | 1 kts | 85° |
| 2026-04-15 22:35 | 29.94062 | -88.16008 | 33 ft | 1 kts | 85° |
| 2026-04-15 22:35 | 29.94062 | -88.16000 | 33 ft | 1 kts | 85° |
| 2026-04-15 22:35 | 29.94062 | -88.15992 | 35 ft | 1 kts | 85° |
| 2026-04-15 22:35 | 29.94062 | -88.15984 | 34 ft | 1 kts | 85° |
| 2026-04-15 22:36 | 29.94062 | -88.15976 | 35 ft | 1 kts | 85° |
| 2026-04-15 22:36 | 29.94062 | -88.15967 | 34 ft | 1 kts | 85° |
| 2026-04-15 22:36 | 29.94062 | -88.15959 | 33 ft | 1 kts | 85° |
| 2026-04-15 22:36 | 29.94062 | -88.15951 | 33 ft | 1 kts | 85° |
| 2026-04-15 22:37 | 29.94062 | -88.15943 | 33 ft | 1 kts | 85° |
| 2026-04-15 22:37 | 29.94062 | -88.15935 | 30 ft | 1 kts | 85° |
| 2026-04-15 22:37 | 29.94062 | -88.15927 | 31 ft | 1 kts | 85° |
| 2026-04-15 22:37 | 29.94061 | -88.15919 | 32 ft | 1 kts | 85° |
| 2026-04-15 22:38 | 29.94061 | -88.15911 | 31 ft | 1 kts | 85° |
| 2026-04-15 22:38 | 29.94061 | -88.15903 | 32 ft | 1 kts | 85° |
| 2026-04-15 22:38 | 29.94061 | -88.15895 | 33 ft | 1 kts | 85° |
| 2026-04-15 22:38 | 29.94061 | -88.15887 | 33 ft | 1 kts | 85° |
| 2026-04-15 22:39 | 29.94061 | -88.15879 | 32 ft | 1 kts | 85° |
| 2026-04-15 22:39 | 29.94061 | -88.15871 | 32 ft | 1 kts | 85° |
| 2026-04-15 22:39 | 29.94061 | -88.15863 | 32 ft | 1 kts | 85° |
| 2026-04-15 22:39 | 29.94061 | -88.15855 | 34 ft | 1 kts | 85° |
| 2026-04-15 22:40 | 29.94061 | -88.15847 | 33 ft | 1 kts | 85° |
| 2026-04-15 22:40 | 29.94061 | -88.15839 | 33 ft | 1 kts | 85° |
| 2026-04-15 22:40 | 29.94061 | -88.15831 | 33 ft | 1 kts | 85° |
| 2026-04-15 22:41 | 29.94061 | -88.15815 | 33 ft | 1 kts | 85° |
| 2026-04-15 22:41 | 29.94061 | -88.15807 | 34 ft | 1 kts | 85° |
| 2026-04-15 22:41 | 29.94061 | -88.15799 | 32 ft | 1 kts | 85° |
| 2026-04-15 22:41 | 29.94061 | -88.15791 | 31 ft | 1 kts | 85° |
| 2026-04-15 22:42 | 29.94061 | -88.15783 | 32 ft | 1 kts | 85° |
| 2026-04-15 22:42 | 29.94061 | -88.15775 | 33 ft | 1 kts | 85° |
| 2026-04-15 22:42 | 29.94061 | -88.15767 | 33 ft | 1 kts | 85° |
| 2026-04-15 22:42 | 29.94061 | -88.15759 | 33 ft | 1 kts | 85° |
| 2026-04-15 22:43 | 29.94061 | -88.15751 | 33 ft | 1 kts | 85° |
| 2026-04-15 22:43 | 29.94061 | -88.15743 | 32 ft | 1 kts | 85° |
| 2026-04-15 22:43 | 29.94061 | -88.15735 | 34 ft | 1 kts | 85° |
| 2026-04-15 22:43 | 29.94061 | -88.15727 | 34 ft | 1 kts | 85° |
| 2026-04-15 22:44 | 29.94061 | -88.15719 | 34 ft | 1 kts | 85° |
| 2026-04-15 22:44 | 29.94061 | -88.15711 | 33 ft | 1 kts | 85° |
| 2026-04-15 22:44 | 29.94061 | -88.15703 | 33 ft | 1 kts | 85° |
| 2026-04-15 22:44 | 29.94061 | -88.15695 | 33 ft | 1 kts | 85° |
| 2026-04-15 22:45 | 29.94061 | -88.15687 | 33 ft | 1 kts | 85° |
| 2026-04-15 22:45 | 29.94061 | -88.15679 | 34 ft | 1 kts | 85° |
| 2026-04-15 22:45 | 29.94061 | -88.15671 | 32 ft | 1 kts | 85° |
| 2026-04-15 22:45 | 29.94061 | -88.15663 | 31 ft | 1 kts | 85° |
| 2026-04-15 22:46 | 29.94061 | -88.15654 | 31 ft | 1 kts | 85° |
| 2026-04-15 22:46 | 29.94061 | -88.15647 | 33 ft | 1 kts | 85° |
| 2026-04-15 22:46 | 29.94061 | -88.15639 | 33 ft | 1 kts | 85° |
| 2026-04-15 22:46 | 29.94061 | -88.15631 | 33 ft | 1 kts | 85° |
| 2026-04-15 22:47 | 29.94061 | -88.15622 | 33 ft | 1 kts | 85° |
| 2026-04-15 22:47 | 29.94061 | -88.15614 | 33 ft | 1 kts | 85° |
| 2026-04-15 22:47 | 29.94061 | -88.15606 | 33 ft | 1 kts | 85° |
| 2026-04-15 22:47 | 29.94061 | -88.15598 | 33 ft | 1 kts | 85° |
| 2026-04-15 22:48 | 29.94061 | -88.15590 | 33 ft | 1 kts | 85° |
| 2026-04-15 22:48 | 29.94061 | -88.15582 | 33 ft | 1 kts | 85° |
| 2026-04-15 22:48 | 29.94061 | -88.15574 | 31 ft | 1 kts | 85° |
| 2026-04-15 22:48 | 29.94061 | -88.15566 | 33 ft | 1 kts | 85° |
| 2026-04-15 22:49 | 29.94061 | -88.15558 | 34 ft | 1 kts | 85° |
| 2026-04-15 22:49 | 29.94061 | -88.15550 | 34 ft | 1 kts | 85° |
| 2026-04-15 22:49 | 29.94061 | -88.15542 | 34 ft | 1 kts | 85° |
| 2026-04-15 22:49 | 29.94061 | -88.15534 | 32 ft | 1 kts | 85° |
| 2026-04-15 22:50 | 29.94061 | -88.15526 | 31 ft | 1 kts | 85° |
| 2026-04-15 22:50 | 29.94061 | -88.15518 | 32 ft | 1 kts | 85° |
| 2026-04-15 22:50 | 29.94061 | -88.15510 | 33 ft | 1 kts | 85° |
| 2026-04-15 22:50 | 29.94061 | -88.15502 | 33 ft | 1 kts | 85° |
| 2026-04-15 22:51 | 29.94061 | -88.15494 | 33 ft | 1 kts | 85° |
| 2026-04-15 22:51 | 29.94061 | -88.15486 | 33 ft | 1 kts | 85° |
| 2026-04-15 22:51 | 29.94061 | -88.15478 | 33 ft | 1 kts | 85° |
| 2026-04-15 22:51 | 29.94061 | -88.15470 | 33 ft | 1 kts | 85° |
| 2026-04-15 22:52 | 29.94061 | -88.15462 | 32 ft | 1 kts | 85° |
| 2026-04-15 22:52 | 29.94061 | -88.15454 | 31 ft | 1 kts | 85° |
| 2026-04-15 22:52 | 29.94061 | -88.15446 | 35 ft | 1 kts | 85° |
| 2026-04-15 22:52 | 29.94061 | -88.15438 | 34 ft | 1 kts | 85° |
| 2026-04-15 22:53 | 29.94061 | -88.15430 | 34 ft | 1 kts | 85° |
| 2026-04-15 22:53 | 29.94061 | -88.15422 | 34 ft | 1 kts | 85° |
| 2026-04-15 22:53 | 29.94061 | -88.15414 | 33 ft | 1 kts | 85° |
| 2026-04-15 22:53 | 29.94061 | -88.15406 | 33 ft | 1 kts | 85° |
| 2026-04-15 22:54 | 29.94061 | -88.15398 | 33 ft | 1 kts | 85° |
| 2026-04-15 22:54 | 29.94061 | -88.15390 | 33 ft | 1 kts | 85° |
| 2026-04-15 22:54 | 29.94061 | -88.15382 | 33 ft | 1 kts | 85° |
| 2026-04-15 22:54 | 29.94061 | -88.15374 | 33 ft | 1 kts | 85° |
| 2026-04-15 22:55 | 29.94061 | -88.15366 | 33 ft | 1 kts | 85° |
| 2026-04-15 22:55 | 29.94061 | -88.15358 | 33 ft | 1 kts | 85° |
| 2026-04-15 22:55 | 29.94061 | -88.15350 | 33 ft | 1 kts | 85° |
| 2026-04-15 22:55 | 29.94061 | -88.15342 | 33 ft | 1 kts | 85° |
| 2026-04-15 22:56 | 29.94061 | -88.15334 | 33 ft | 1 kts | 85° |
| 2026-04-15 22:56 | 29.94061 | -88.15326 | 31 ft | 1 kts | 85° |
| 2026-04-15 22:56 | 29.94061 | -88.15318 | 34 ft | 1 kts | 85° |
| 2026-04-15 22:56 | 29.94061 | -88.15310 | 34 ft | 1 kts | 85° |
| 2026-04-15 22:57 | 29.94061 | -88.15302 | 34 ft | 1 kts | 85° |
| 2026-04-15 22:57 | 29.94061 | -88.15294 | 34 ft | 1 kts | 85° |
| 2026-04-15 22:57 | 29.94061 | -88.15286 | 32 ft | 1 kts | 85° |
| 2026-04-15 22:57 | 29.94061 | -88.15278 | 31 ft | 1 kts | 85° |
| 2026-04-15 22:58 | 29.94061 | -88.15270 | 32 ft | 1 kts | 85° |
| 2026-04-15 22:58 | 29.94061 | -88.15262 | 33 ft | 1 kts | 85° |
| 2026-04-15 22:58 | 29.94061 | -88.15254 | 33 ft | 1 kts | 85° |
| 2026-04-15 22:58 | 29.94061 | -88.15246 | 33 ft | 1 kts | 85° |
| 2026-04-15 22:59 | 29.94061 | -88.15238 | 33 ft | 1 kts | 85° |
| 2026-04-15 22:59 | 29.94061 | -88.15230 | 33 ft | 1 kts | 85° |
| 2026-04-15 22:59 | 29.94061 | -88.15222 | 33 ft | 1 kts | 85° |
| 2026-04-15 22:59 | 29.94061 | -88.15214 | 33 ft | 1 kts | 85° |
| 2026-04-15 23:00 | 29.94061 | -88.15206 | 33 ft | 1 kts | 85° |
| 2026-04-15 23:00 | 29.94061 | -88.15198 | 33 ft | 1 kts | 85° |
| 2026-04-15 23:00 | 29.94061 | -88.15190 | 33 ft | 1 kts | 85° |
| 2026-04-15 23:00 | 29.94061 | -88.15182 | 33 ft | 1 kts | 85° |
| 2026-04-15 23:01 | 29.94061 | -88.15174 | 33 ft | 1 kts | 85° |
| 2026-04-15 23:01 | 29.94061 | -88.15166 | 33 ft | 1 kts | 85° |
| 2026-04-15 23:01 | 29.94061 | -88.15158 | 34 ft | 1 kts | 85° |
| 2026-04-15 23:01 | 29.94061 | -88.15150 | 31 ft | 1 kts | 85° |
| 2026-04-15 23:02 | 29.94061 | -88.15142 | 31 ft | 1 kts | 85° |
| 2026-04-15 23:02 | 29.94061 | -88.15134 | 32 ft | 1 kts | 85° |
| 2026-04-15 23:02 | 29.94060 | -88.15126 | 33 ft | 1 kts | 85° |
| 2026-04-15 23:02 | 29.94060 | -88.15118 | 33 ft | 1 kts | 85° |
| 2026-04-15 23:03 | 29.94060 | -88.15110 | 33 ft | 1 kts | 85° |
| 2026-04-15 23:03 | 29.94060 | -88.15102 | 33 ft | 1 kts | 85° |
| 2026-04-15 23:03 | 29.94060 | -88.15093 | 33 ft | 1 kts | 85° |
| 2026-04-15 23:03 | 29.94060 | -88.15085 | 33 ft | 1 kts | 85° |
| 2026-04-15 23:04 | 29.94060 | -88.15077 | 33 ft | 1 kts | 85° |
| 2026-04-15 23:04 | 29.94060 | -88.15069 | 33 ft | 1 kts | 85° |
| 2026-04-15 23:04 | 29.94060 | -88.15061 | 33 ft | 1 kts | 85° |
| 2026-04-15 23:04 | 29.94060 | -88.15053 | 33 ft | 1 kts | 85° |
| 2026-04-15 23:05 | 29.94060 | -88.15045 | 33 ft | 1 kts | 85° |
| 2026-04-15 23:05 | 29.94060 | -88.15037 | 33 ft | 1 kts | 85° |
| 2026-04-15 23:05 | 29.94060 | -88.15029 | 33 ft | 1 kts | 85° |
| 2026-04-15 23:05 | 29.94060 | -88.15021 | 33 ft | 1 kts | 85° |
| 2026-04-15 23:06 | 29.94060 | -88.15013 | 33 ft | 1 kts | 85° |
| 2026-04-15 23:06 | 29.94060 | -88.15005 | 33 ft | 1 kts | 85° |
| 2026-04-15 23:06 | 29.94060 | -88.14997 | 33 ft | 1 kts | 85° |
| 2026-04-15 23:06 | 29.94060 | -88.14989 | 33 ft | 1 kts | 85° |
| 2026-04-15 23:07 | 29.94060 | -88.14981 | 33 ft | 1 kts | 85° |
| 2026-04-15 23:07 | 29.94060 | -88.14973 | 33 ft | 1 kts | 85° |
| 2026-04-15 23:07 | 29.94060 | -88.14965 | 33 ft | 1 kts | 85° |
| 2026-04-15 23:07 | 29.94060 | -88.14957 | 33 ft | 1 kts | 85° |
| 2026-04-15 23:08 | 29.94060 | -88.14949 | 33 ft | 1 kts | 85° |
| 2026-04-15 23:08 | 29.94060 | -88.14941 | 33 ft | 1 kts | 85° |
| 2026-04-15 23:08 | 29.94060 | -88.14933 | 33 ft | 1 kts | 85° |
| 2026-04-15 23:08 | 29.94060 | -88.14925 | 33 ft | 1 kts | 85° |
| 2026-04-15 23:09 | 29.94060 | -88.14917 | 33 ft | 1 kts | 85° |
| 2026-04-15 23:09 | 29.94060 | -88.14909 | 33 ft | 1 kts | 85° |
| 2026-04-15 23:09 | 29.94060 | -88.14901 | 33 ft | 1 kts | 85° |
| 2026-04-15 23:09 | 29.94060 | -88.14893 | 33 ft | 1 kts | 85° |
| 2026-04-15 23:10 | 29.94060 | -88.14884 | 33 ft | 1 kts | 85° |
| 2026-04-15 23:10 | 29.94060 | -88.14876 | 33 ft | 1 kts | 85° |
| 2026-04-15 23:10 | 29.94060 | -88.14868 | 33 ft | 1 kts | 85° |
| 2026-04-15 23:10 | 29.94060 | -88.14860 | 33 ft | 1 kts | 85° |
| 2026-04-15 23:11 | 29.94060 | -88.14852 | 33 ft | 1 kts | 85° |
| 2026-04-15 23:11 | 29.94060 | -88.14844 | 33 ft | 1 kts | 85° |
| 2026-04-15 23:11 | 29.94060 | -88.14839 | 33 ft | 1 kts | 85° |
| 2026-04-15 23:11 | 29.94060 | -88.14831 | 33 ft | 1 kts | 85° |
| 2026-04-15 23:12 | 29.94060 | -88.14823 | 33 ft | 1 kts | 85° |
| 2026-04-15 23:12 | 29.94060 | -88.14815 | 34 ft | 1 kts | 85° |
| 2026-04-15 23:12 | 29.94060 | -88.14807 | 35 ft | 1 kts | 85° |
| 2026-04-15 23:12 | 29.94060 | -88.14799 | 31 ft | 1 kts | 85° |
| 2026-04-15 23:13 | 29.94060 | -88.14788 | 32 ft | 1 kts | 85° |
| 2026-04-15 23:13 | 29.94060 | -88.14783 | 32 ft | 1 kts | 85° |
| 2026-04-15 23:13 | 29.94060 | -88.14775 | 32 ft | 1 kts | 85° |
| 2026-04-15 23:13 | 29.94060 | -88.14767 | 35 ft | 1 kts | 85° |
| 2026-04-15 23:14 | 29.94060 | -88.14759 | 34 ft | 1 kts | 85° |
| 2026-04-15 23:14 | 29.94060 | -88.14751 | 33 ft | 1 kts | 85° |
| 2026-04-15 23:14 | 29.94060 | -88.14743 | 33 ft | 1 kts | 85° |
| 2026-04-15 23:14 | 29.94060 | -88.14735 | 33 ft | 1 kts | 85° |
| 2026-04-15 23:15 | 29.94060 | -88.14727 | 33 ft | 1 kts | 85° |
| 2026-04-15 23:15 | 29.94060 | -88.14718 | 33 ft | 1 kts | 85° |
| 2026-04-15 23:15 | 29.94060 | -88.14710 | 33 ft | 1 kts | 85° |
| 2026-04-15 23:15 | 29.94060 | -88.14702 | 33 ft | 1 kts | 85° |
| 2026-04-15 23:16 | 29.94060 | -88.14694 | 33 ft | 1 kts | 85° |
| 2026-04-15 23:16 | 29.94060 | -88.14686 | 33 ft | 1 kts | 85° |
| 2026-04-15 23:16 | 29.94060 | -88.14678 | 33 ft | 1 kts | 85° |
| 2026-04-15 23:16 | 29.94060 | -88.14670 | 33 ft | 1 kts | 85° |
| 2026-04-15 23:17 | 29.94060 | -88.14662 | 33 ft | 1 kts | 85° |
| 2026-04-15 23:17 | 29.94060 | -88.14654 | 33 ft | 1 kts | 85° |
| 2026-04-15 23:17 | 29.94060 | -88.14646 | 33 ft | 1 kts | 85° |
| 2026-04-15 23:17 | 29.94060 | -88.14638 | 33 ft | 1 kts | 85° |
| 2026-04-15 23:18 | 29.94060 | -88.14630 | 33 ft | 1 kts | 85° |
| 2026-04-15 23:18 | 29.94060 | -88.14622 | 33 ft | 1 kts | 85° |
| 2026-04-15 23:18 | 29.94060 | -88.14614 | 33 ft | 1 kts | 85° |
| 2026-04-15 23:18 | 29.94060 | -88.14606 | 33 ft | 1 kts | 85° |
| 2026-04-15 23:19 | 29.94060 | -88.14598 | 33 ft | 1 kts | 85° |
| 2026-04-15 23:19 | 29.94060 | -88.14590 | 33 ft | 1 kts | 85° |
| 2026-04-15 23:19 | 29.94060 | -88.14582 | 31 ft | 1 kts | 85° |
| 2026-04-15 23:19 | 29.94060 | -88.14574 | 32 ft | 1 kts | 85° |
| 2026-04-15 23:20 | 29.94060 | -88.14566 | 31 ft | 1 kts | 85° |
| 2026-04-15 23:20 | 29.94060 | -88.14558 | 32 ft | 1 kts | 85° |
| 2026-04-15 23:20 | 29.94060 | -88.14550 | 33 ft | 1 kts | 85° |
| 2026-04-15 23:20 | 29.94060 | -88.14542 | 33 ft | 1 kts | 85° |
| 2026-04-15 23:21 | 29.94060 | -88.14534 | 32 ft | 1 kts | 85° |
| 2026-04-15 23:21 | 29.94060 | -88.14526 | 31 ft | 1 kts | 85° |
| 2026-04-15 23:21 | 29.94060 | -88.14518 | 32 ft | 1 kts | 85° |
| 2026-04-15 23:21 | 29.94060 | -88.14510 | 34 ft | 1 kts | 85° |
| 2026-04-15 23:22 | 29.94060 | -88.14502 | 33 ft | 1 kts | 85° |
| 2026-04-15 23:22 | 29.94060 | -88.14494 | 33 ft | 1 kts | 85° |
| 2026-04-15 23:22 | 29.94060 | -88.14486 | 33 ft | 1 kts | 85° |
| 2026-04-15 23:22 | 29.94060 | -88.14478 | 33 ft | 1 kts | 85° |
| 2026-04-15 23:23 | 29.94060 | -88.14470 | 33 ft | 1 kts | 85° |
| 2026-04-15 23:23 | 29.94060 | -88.14462 | 34 ft | 1 kts | 85° |
| 2026-04-15 23:23 | 29.94060 | -88.14454 | 35 ft | 1 kts | 85° |
| 2026-04-15 23:23 | 29.94060 | -88.14446 | 33 ft | 1 kts | 85° |
| 2026-04-15 23:24 | 29.94060 | -88.14438 | 33 ft | 1 kts | 85° |
| 2026-04-15 23:24 | 29.94060 | -88.14430 | 33 ft | 1 kts | 85° |
| 2026-04-15 23:24 | 29.94060 | -88.14422 | 33 ft | 1 kts | 85° |
| 2026-04-15 23:24 | 29.94060 | -88.14414 | 33 ft | 1 kts | 85° |
| 2026-04-15 23:25 | 29.94059 | -88.14406 | 33 ft | 1 kts | 85° |
| 2026-04-15 23:25 | 29.94059 | -88.14398 | 34 ft | 1 kts | 85° |
| 2026-04-15 23:25 | 29.94059 | -88.14390 | 34 ft | 1 kts | 85° |
| 2026-04-15 23:25 | 29.94059 | -88.14382 | 34 ft | 1 kts | 85° |
| 2026-04-15 23:26 | 29.94059 | -88.14374 | 34 ft | 1 kts | 85° |
| 2026-04-15 23:26 | 29.94059 | -88.14366 | 33 ft | 1 kts | 85° |
| 2026-04-15 23:26 | 29.94059 | -88.14358 | 33 ft | 1 kts | 85° |
| 2026-04-15 23:26 | 29.94059 | -88.14350 | 33 ft | 1 kts | 85° |
| 2026-04-15 23:27 | 29.94059 | -88.14342 | 33 ft | 1 kts | 85° |
| 2026-04-15 23:27 | 29.94059 | -88.14334 | 34 ft | 1 kts | 85° |
| 2026-04-15 23:27 | 29.94059 | -88.14326 | 32 ft | 1 kts | 85° |
| 2026-04-15 23:27 | 29.94059 | -88.14318 | 31 ft | 1 kts | 85° |
| 2026-04-15 23:28 | 29.94059 | -88.14310 | 31 ft | 1 kts | 85° |
| 2026-04-15 23:28 | 29.94059 | -88.14302 | 33 ft | 1 kts | 85° |
| 2026-04-15 23:28 | 29.94059 | -88.14294 | 33 ft | 1 kts | 85° |
| 2026-04-15 23:28 | 29.94059 | -88.14286 | 33 ft | 1 kts | 85° |
| 2026-04-15 23:29 | 29.94059 | -88.14278 | 33 ft | 1 kts | 85° |
| 2026-04-15 23:29 | 29.94059 | -88.14270 | 32 ft | 1 kts | 85° |
| 2026-04-15 23:29 | 29.94059 | -88.14262 | 34 ft | 1 kts | 85° |
| 2026-04-15 23:29 | 29.94059 | -88.14254 | 33 ft | 1 kts | 85° |
| 2026-04-15 23:30 | 29.94059 | -88.14246 | 34 ft | 1 kts | 85° |
| 2026-04-15 23:30 | 29.94059 | -88.14238 | 33 ft | 1 kts | 85° |
| 2026-04-15 23:30 | 29.94059 | -88.14230 | 33 ft | 1 kts | 85° |
| 2026-04-15 23:30 | 29.94059 | -88.14222 | 33 ft | 1 kts | 85° |
| 2026-04-15 23:31 | 29.94059 | -88.14214 | 33 ft | 1 kts | 85° |
| 2026-04-15 23:31 | 29.94059 | -88.14206 | 33 ft | 1 kts | 85° |
| 2026-04-15 23:31 | 29.94059 | -88.14198 | 31 ft | 1 kts | 85° |
| 2026-04-15 23:31 | 29.94059 | -88.14189 | 32 ft | 1 kts | 85° |
| 2026-04-15 23:32 | 29.94059 | -88.14181 | 31 ft | 1 kts | 85° |
| 2026-04-15 23:32 | 29.94059 | -88.14173 | 32 ft | 1 kts | 85° |
| 2026-04-15 23:32 | 29.94059 | -88.14165 | 33 ft | 1 kts | 85° |
| 2026-04-15 23:32 | 29.94059 | -88.14157 | 33 ft | 1 kts | 85° |
| 2026-04-15 23:33 | 29.94059 | -88.14149 | 33 ft | 1 kts | 85° |
| 2026-04-15 23:33 | 29.94059 | -88.14141 | 33 ft | 1 kts | 85° |
| 2026-04-15 23:33 | 29.94059 | -88.14133 | 32 ft | 1 kts | 85° |
| 2026-04-15 23:33 | 29.94059 | -88.14125 | 34 ft | 1 kts | 85° |
| 2026-04-15 23:34 | 29.94059 | -88.14117 | 35 ft | 1 kts | 85° |
| 2026-04-15 23:34 | 29.94059 | -88.14109 | 35 ft | 1 kts | 85° |
| 2026-04-15 23:34 | 29.94059 | -88.14101 | 31 ft | 1 kts | 85° |
| 2026-04-15 23:36 | 29.94063 | -88.14053 | 33 ft | 1 kts | 88° |
| 2026-04-15 23:36 | 29.94063 | -88.14045 | 33 ft | 1 kts | 88° |
| 2026-04-15 23:36 | 29.94063 | -88.14037 | 33 ft | 1 kts | 88° |
| 2026-04-15 23:36 | 29.94063 | -88.14029 | 33 ft | 1 kts | 88° |
| 2026-04-15 23:37 | 29.94063 | -88.14021 | 32 ft | 1 kts | 88° |
| 2026-04-15 23:37 | 29.94062 | -88.14012 | 31 ft | 1 kts | 88° |
| 2026-04-15 23:37 | 29.94062 | -88.14004 | 35 ft | 1 kts | 88° |
| 2026-04-15 23:37 | 29.94091 | -88.13990 | 73 ft | 19 kts | 86° |
| 2026-04-15 23:38 | 29.94308 | -88.13622 | 322 ft | 96 kts | 37° |
| 2026-04-15 23:38 | 29.94970 | -88.13933 | 530 ft | 117 kts | 317° |
| 2026-04-15 23:38 | 29.95268 | -88.14681 | 487 ft | 102 kts | 264° |
| 2026-04-15 23:38 | 29.95215 | -88.15494 | 410 ft | 102 kts | 261° |
| 2026-04-15 23:39 | 29.94907 | -88.15914 | 442 ft | 67 kts | 164° |
| 2026-04-15 23:39 | 29.94467 | -88.15734 | 418 ft | 66 kts | 161° |
| 2026-04-15 23:39 | 29.94055 | -88.15584 | 329 ft | 57 kts | 119° |
| 2026-04-15 23:39 | 29.94060 | -88.15206 | 344 ft | 60 kts | 85° |
| 2026-04-15 23:40 | 29.94084 | -88.14787 | 366 ft | 55 kts | 90° |
| 2026-04-15 23:40 | 29.94071 | -88.14395 | 220 ft | 38 kts | 90° |
| 2026-04-15 23:40 | 29.94060 | -88.14168 | 164 ft | 19 kts | 87° |
| 2026-04-15 23:40 | 29.94060 | -88.14070 | 143 ft | 11 kts | 86° |
| 2026-04-15 23:41 | 29.94061 | -88.13987 | 86 ft | 6 kts | 88° |
| 2026-04-15 23:41 | 29.94061 | -88.13932 | 64 ft | 7 kts | 88° |
| 2026-04-15 23:41 | 29.94061 | -88.13896 | 49 ft | 4 kts | 88° |
| 2026-04-15 23:41 | 29.94062 | -88.13873 | 49 ft | 2 kts | 89° |
| 2026-04-15 23:42 | 29.94062 | -88.13862 | 33 ft | 1 kts | 90° |
| 2026-04-15 23:42 | 29.94062 | -88.13854 | 34 ft | 1 kts | 90° |
| 2026-04-15 23:42 | 29.94062 | -88.13846 | 32 ft | 1 kts | 90° |
| 2026-04-15 23:42 | 29.94093 | -88.13820 | 59 ft | 24 kts | 86° |
| 2026-04-15 23:43 | 29.94297 | -88.13456 | 266 ft | 93 kts | 50° |
| 2026-04-15 23:43 | 29.94970 | -88.13512 | 378 ft | 112 kts | 321° |
| 2026-04-15 23:43 | 29.95195 | -88.14401 | 334 ft | 112 kts | 267° |
| 2026-04-15 23:43 | 29.95031 | -88.15229 | 486 ft | 106 kts | 245° |
| 2026-04-15 23:44 | 29.94628 | -88.15753 | 578 ft | 72 kts | 176° |
| 2026-04-15 23:44 | 29.94215 | -88.15520 | 311 ft | 66 kts | 127° |
| 2026-04-15 23:44 | 29.94135 | -88.14997 | 216 ft | 64 kts | 102° |
| 2026-04-15 23:44 | 29.94127 | -88.14561 | 205 ft | 45 kts | 98° |
| 2026-04-15 23:45 | 29.94095 | -88.14241 | 223 ft | 35 kts | 98° |
| 2026-04-15 23:45 | 29.94081 | -88.14008 | 192 ft | 26 kts | 91° |
| 2026-04-15 23:45 | 29.94079 | -88.13886 | 142 ft | 10 kts | 81° |
| 2026-04-15 23:45 | 29.94082 | -88.13827 | 99 ft | 6 kts | 82° |
| 2026-04-15 23:46 | 29.94091 | -88.13783 | 124 ft | 4 kts | 80° |
| 2026-04-15 23:46 | 29.94100 | -88.13761 | 131 ft | 3 kts | 79° |
| 2026-04-15 23:46 | 29.94097 | -88.13736 | 128 ft | 6 kts | 79° |
| 2026-04-15 23:46 | 29.94075 | -88.13724 | 70 ft | 3 kts | 84° |
| 2026-04-15 23:47 | 29.94068 | -88.13710 | 66 ft | 1 kts | 81° |
| 2026-04-15 23:47 | 29.94073 | -88.13703 | 69 ft | 2 kts | 82° |
| 2026-04-15 23:47 | 29.94079 | -88.13697 | 59 ft | 1 kts | 82° |
| 2026-04-15 23:47 | 29.94078 | -88.13689 | 69 ft | 2 kts | 81° |
| 2026-04-15 23:48 | 29.94076 | -88.13680 | 68 ft | 2 kts | 81° |
| 2026-04-15 23:48 | 29.94068 | -88.13670 | 66 ft | 1 kts | 81° |
| 2026-04-15 23:48 | 29.94078 | -88.13665 | 88 ft | 3 kts | 81° |
| 2026-04-15 23:48 | 29.94088 | -88.13652 | 94 ft | 5 kts | 81° |
| 2026-04-15 23:49 | 29.94366 | -88.13567 | 199 ft | 86 kts | 341° |
| 2026-04-15 23:49 | 29.95128 | -88.13657 | 558 ft | 128 kts | 359° |
| 2026-04-15 23:49 | 29.96069 | -88.13760 | 525 ft | 142 kts | 358° |
| 2026-04-15 23:49 | 29.97034 | -88.13872 | 560 ft | 136 kts | 358° |
| 2026-04-15 23:50 | 29.97955 | -88.13975 | 562 ft | 139 kts | 358° |
| 2026-04-15 23:50 | 29.98904 | -88.14079 | 570 ft | 133 kts | 358° |
| 2026-04-15 23:50 | 29.99826 | -88.14183 | 569 ft | 136 kts | 358° |
| 2026-04-15 23:51 | 30.01701 | -88.14382 | 573 ft | 136 kts | 358° |
| 2026-04-15 23:51 | 30.02632 | -88.14465 | 571 ft | 134 kts | 358° |
| 2026-04-15 23:51 | 30.03561 | -88.14567 | 572 ft | 134 kts | 358° |
| 2026-04-15 23:51 | 30.04491 | -88.14682 | 569 ft | 134 kts | 358° |
| 2026-04-15 23:52 | 30.05402 | -88.14796 | 570 ft | 130 kts | 358° |
| 2026-04-15 23:52 | 30.06339 | -88.14920 | 574 ft | 137 kts | 358° |
| 2026-04-15 23:52 | 30.07259 | -88.15040 | 578 ft | 131 kts | 358° |
| 2026-04-15 23:52 | 30.08181 | -88.15161 | 570 ft | 137 kts | 358° |
| 2026-04-15 23:53 | 30.09117 | -88.15304 | 570 ft | 138 kts | 358° |
| 2026-04-15 23:53 | 30.10059 | -88.15433 | 567 ft | 138 kts | 358° |
| 2026-04-15 23:53 | 30.11007 | -88.15578 | 565 ft | 139 kts | 358° |
| 2026-04-15 23:53 | 30.11929 | -88.15692 | 569 ft | 141 kts | 1° |
| 2026-04-15 23:54 | 30.12927 | -88.15764 | 579 ft | 136 kts | 2° |
| 2026-04-15 23:54 | 30.13854 | -88.15802 | 572 ft | 135 kts | 2° |
| 2026-04-15 23:54 | 30.14781 | -88.15873 | 567 ft | 136 kts | 2° |
| 2026-04-15 23:54 | 30.15730 | -88.15914 | 573 ft | 138 kts | 2° |
| 2026-04-15 23:55 | 30.16697 | -88.15949 | 576 ft | 137 kts | 2° |
| 2026-04-15 23:55 | 30.17636 | -88.15953 | 568 ft | 135 kts | 2° |
| 2026-04-15 23:55 | 30.18569 | -88.16000 | 572 ft | 138 kts | 2° |
| 2026-04-15 23:55 | 30.19501 | -88.16014 | 575 ft | 134 kts | 2° |
| 2026-04-15 23:56 | 30.20441 | -88.16062 | 575 ft | 131 kts | 2° |
| 2026-04-15 23:56 | 30.21369 | -88.16098 | 576 ft | 138 kts | 2° |
| 2026-04-15 23:56 | 30.22311 | -88.16125 | 577 ft | 136 kts | 2° |
| 2026-04-15 23:56 | 30.23269 | -88.16155 | 576 ft | 141 kts | 2° |
| 2026-04-15 23:57 | 30.24249 | -88.16167 | 577 ft | 136 kts | 4° |
| 2026-04-15 23:57 | 30.25188 | -88.16183 | 577 ft | 136 kts | 4° |
| 2026-04-15 23:57 | 30.26129 | -88.16201 | 578 ft | 131 kts | 4° |
| 2026-04-15 23:57 | 30.27024 | -88.16227 | 572 ft | 139 kts | 4° |
| 2026-04-15 23:58 | 30.27980 | -88.16201 | 577 ft | 137 kts | 4° |
| 2026-04-15 23:58 | 30.28915 | -88.16186 | 575 ft | 134 kts | 4° |
| 2026-04-15 23:58 | 30.29862 | -88.16199 | 576 ft | 136 kts | 4° |
| 2026-04-15 23:58 | 30.30809 | -88.16176 | 579 ft | 136 kts | 4° |
| 2026-04-15 23:59 | 30.31744 | -88.16165 | 582 ft | 134 kts | 4° |
| 2026-04-15 23:59 | 30.32371 | -88.16173 | 576 ft | 134 kts | 4° |
| 2026-04-15 23:59 | 30.33296 | -88.16165 | 578 ft | 134 kts | 4° |
| 2026-04-15 23:59 | 30.34247 | -88.16180 | 580 ft | 138 kts | 4° |
| 2026-04-16 00:00 | 30.35196 | -88.16151 | 587 ft | 130 kts | 4° |
| 2026-04-16 00:00 | 30.36125 | -88.16154 | 596 ft | 135 kts | 4° |
| 2026-04-16 00:00 | 30.37079 | -88.16092 | 584 ft | 138 kts | 8° |
| 2026-04-16 00:00 | 30.38010 | -88.16027 | 587 ft | 132 kts | 8° |
| 2026-04-16 00:01 | 30.38949 | -88.15966 | 591 ft | 137 kts | 8° |
| 2026-04-16 00:01 | 30.39887 | -88.15892 | 601 ft | 131 kts | 8° |
| 2026-04-16 00:01 | 30.40841 | -88.15838 | 605 ft | 138 kts | 8° |
| 2026-04-16 00:01 | 30.41777 | -88.15798 | 600 ft | 134 kts | 8° |
| 2026-04-16 00:02 | 30.42715 | -88.15719 | 595 ft | 138 kts | 8° |
| 2026-04-16 00:02 | 30.43657 | -88.15662 | 605 ft | 129 kts | 8° |
| 2026-04-16 00:02 | 30.44606 | -88.15586 | 596 ft | 134 kts | 8° |
| 2026-04-16 00:02 | 30.45550 | -88.15526 | 586 ft | 145 kts | 8° |
| 2026-04-16 00:03 | 30.46506 | -88.15453 | 591 ft | 131 kts | 8° |
| 2026-04-16 00:03 | 30.47438 | -88.15400 | 596 ft | 138 kts | 8° |
| 2026-04-16 00:03 | 30.48397 | -88.15314 | 591 ft | 141 kts | 8° |
| 2026-04-16 00:03 | 30.49373 | -88.15220 | 594 ft | 147 kts | 8° |
| 2026-04-16 00:04 | 30.50363 | -88.15118 | 589 ft | 139 kts | 9° |
| 2026-04-16 00:04 | 30.51318 | -88.15025 | 587 ft | 146 kts | 8° |
| 2026-04-16 00:04 | 30.52300 | -88.15152 | 574 ft | 138 kts | 351° |
| 2026-04-16 00:04 | 30.53258 | -88.15413 | 576 ft | 145 kts | 348° |
| 2026-04-16 00:05 | 30.54205 | -88.15660 | 592 ft | 138 kts | 348° |
| 2026-04-16 00:05 | 30.55181 | -88.15921 | 588 ft | 142 kts | 348° |
| 2026-04-16 00:05 | 30.56124 | -88.16176 | 595 ft | 134 kts | 348° |
| 2026-04-16 00:05 | 30.56933 | -88.16605 | 587 ft | 141 kts | 332° |
| 2026-04-16 00:06 | 30.57863 | -88.17129 | 588 ft | 145 kts | 337° |
| 2026-04-16 00:06 | 30.58782 | -88.17473 | 587 ft | 135 kts | 343° |
| 2026-04-16 00:06 | 30.59666 | -88.17832 | 590 ft | 132 kts | 343° |
| 2026-04-16 00:06 | 30.60565 | -88.18196 | 596 ft | 141 kts | 343° |
| 2026-04-16 00:07 | 30.61495 | -88.18591 | 600 ft | 138 kts | 342° |
| 2026-04-16 00:07 | 30.62377 | -88.18943 | 600 ft | 142 kts | 342° |
| 2026-04-16 00:07 | 30.63302 | -88.19309 | 594 ft | 135 kts | 343° |
| 2026-04-16 00:07 | 30.64210 | -88.19659 | 599 ft | 141 kts | 343° |
| 2026-04-16 00:08 | 30.65125 | -88.20068 | 589 ft | 145 kts | 342° |
| 2026-04-16 00:08 | 30.66049 | -88.20436 | 588 ft | 137 kts | 342° |
| 2026-04-16 00:08 | 30.66967 | -88.20821 | 581 ft | 143 kts | 342° |
| 2026-04-16 00:08 | 30.67817 | -88.21255 | 605 ft | 130 kts | 336° |
| 2026-04-16 00:09 | 30.68700 | -88.21739 | 588 ft | 137 kts | 336° |
| 2026-04-16 00:09 | 30.69480 | -88.22257 | 577 ft | 134 kts | 330° |
| 2026-04-16 00:09 | 30.70349 | -88.22835 | 582 ft | 139 kts | 329° |
| 2026-04-16 00:09 | 30.71074 | -88.23424 | 601 ft | 121 kts | 325° |
| 2026-04-16 00:10 | 30.71827 | -88.24115 | 592 ft | 141 kts | 321° |
| 2026-04-16 00:10 | 30.72528 | -88.24870 | 831 ft | 134 kts | 313° |
| 2026-04-16 00:10 | 30.72833 | -88.25816 | 904 ft | 128 kts | 254° |
| 2026-04-16 00:10 | 30.72328 | -88.26505 | 827 ft | 108 kts | 189° |
| 2026-04-16 00:11 | 30.71568 | -88.26429 | 812 ft | 112 kts | 164° |
| 2026-04-16 00:11 | 30.70907 | -88.25992 | 615 ft | 106 kts | 142° |
| 2026-04-16 00:11 | 30.70369 | -88.25506 | 518 ft | 90 kts | 145° |
| 2026-04-16 00:11 | 30.69896 | -88.25112 | 434 ft | 83 kts | 148° |
| 2026-04-16 00:12 | 30.69508 | -88.24799 | 283 ft | 36 kts | 143° |
| 2026-04-16 00:12 | 30.69455 | -88.24654 | 235 ft | 10 kts | 78° |
| 2026-04-16 00:12 | 30.69461 | -88.24606 | 223 ft | 2 kts | 81° |
| 2026-04-16 00:12 | 30.69463 | -88.24576 | 220 ft | 7 kts | 85° |
| 2026-04-16 00:13 | 30.69468 | -88.24537 | 220 ft | 3 kts | 81° |
| 2026-04-16 00:13 | 30.69474 | -88.24493 | 220 ft | 7 kts | 84° |
| 2026-04-16 00:13 | 30.69451 | -88.24434 | 220 ft | 10 kts | 139° |
| 2026-04-16 00:13 | 30.69408 | -88.24398 | 219 ft | 9 kts | 144° |
| 2026-04-16 00:14 | 30.69346 | -88.24340 | 217 ft | 11 kts | 108° |
| 2026-04-16 00:14 | 30.69375 | -88.24297 | 218 ft | 3 kts | 7° |
| 2026-04-16 00:14 | 30.69388 | -88.24297 | 218 ft | 0 kts | 357° |